sensor_id;sensor_type;location;lat;lon;timestamp;pressure;altitude;pressure_sealevel;temperature;humidity
70488;BME280;57976;48.174;16.370;2022-08-25T00:00:56;99385.92;;;23.09;83.98
70488;BME280;57976;48.174;16.370;2022-08-25T00:03:01;99384.98;;;23.11;84.05
70488;BME280;57976;48.174;16.370;2022-08-25T00:05:08;99381.45;;;23.12;83.91
70488;BME280;57976;48.174;16.370;2022-08-25T00:07:13;99377.92;;;23.11;84.04
70488;BME280;57976;48.174;16.370;2022-08-25T00:09:24;99376.79;;;23.09;84.14
70488;BME280;57976;48.174;16.370;2022-08-25T00:11:33;99375.67;;;23.07;84.35
70488;BME280;57976;48.174;16.370;2022-08-25T00:13:38;99372.30;;;23.04;84.43
70488;BME280;57976;48.174;16.370;2022-08-25T00:15:44;99373.02;;;23.01;84.58
70488;BME280;57976;48.174;16.370;2022-08-25T00:17:49;99373.81;;;22.98;84.76
70488;BME280;57976;48.174;16.370;2022-08-25T00:19:54;99369.30;;;22.96;85.05
70488;BME280;57976;48.174;16.370;2022-08-25T00:21:59;99370.08;;;22.94;85.10
70488;BME280;57976;48.174;16.370;2022-08-25T00:24:05;99366.36;;;22.90;85.12
70488;BME280;57976;48.174;16.370;2022-08-25T00:26:10;99371.42;;;22.89;85.55
70488;BME280;57976;48.174;16.370;2022-08-25T00:28:15;99372.14;;;22.86;85.73
70488;BME280;57976;48.174;16.370;2022-08-25T00:30:20;99368.35;;;22.82;85.64
70488;BME280;57976;48.174;16.370;2022-08-25T00:32:25;99371.70;;;22.83;85.77
70488;BME280;57976;48.174;16.370;2022-08-25T00:34:33;99369.48;;;22.83;85.77
70488;BME280;57976;48.174;16.370;2022-08-25T00:36:38;99369.42;;;22.85;85.74
70488;BME280;57976;48.174;16.370;2022-08-25T00:38:45;99367.20;;;22.84;85.75
70488;BME280;57976;48.174;16.370;2022-08-25T00:40:50;99367.20;;;22.84;85.92
70488;BME280;57976;48.174;16.370;2022-08-25T00:42:55;99366.98;;;22.83;85.87
70488;BME280;57976;48.174;16.370;2022-08-25T00:45:00;99369.11;;;22.83;85.94
70488;BME280;57976;48.174;16.370;2022-08-25T00:47:06;99371.77;;;22.83;86.05
70488;BME280;57976;48.174;16.370;2022-08-25T00:49:16;99368.28;;;22.84;85.99
70488;BME280;57976;48.174;16.370;2022-08-25T00:51:36;99368.50;;;22.84;86.07
70488;BME280;57976;48.174;16.370;2022-08-25T00:53:43;99365.52;;;22.82;86.12
70488;BME280;57976;48.174;16.370;2022-08-25T00:55:48;99364.56;;;22.80;86.35
70488;BME280;57976;48.174;16.370;2022-08-25T00:57:57;99363.63;;;22.80;86.33
70488;BME280;57976;48.174;16.370;2022-08-25T01:00:11;99361.58;;;22.78;86.73
70488;BME280;57976;48.174;16.370;2022-08-25T01:02:17;99357.14;;;22.74;87.10
70488;BME280;57976;48.174;16.370;2022-08-25T01:04:22;99355.58;;;22.70;86.87
70488;BME280;57976;48.174;16.370;2022-08-25T01:06:27;99353.74;;;22.68;86.95
70488;BME280;57976;48.174;16.370;2022-08-25T01:08:34;99350.32;;;22.68;87.09
70488;BME280;57976;48.174;16.370;2022-08-25T01:10:41;99352.66;;;22.68;87.13
70488;BME280;57976;48.174;16.370;2022-08-25T01:12:47;99352.27;;;22.69;87.25
70488;BME280;57976;48.174;16.370;2022-08-25T01:14:53;99351.99;;;22.70;87.32
70488;BME280;57976;48.174;16.370;2022-08-25T01:16:59;99350.36;;;22.71;87.19
70488;BME280;57976;48.174;16.370;2022-08-25T01:19:05;99348.61;;;22.72;87.24
70488;BME280;57976;48.174;16.370;2022-08-25T01:21:10;99349.55;;;22.71;87.27
70488;BME280;57976;48.174;16.370;2022-08-25T01:23:17;99344.82;;;22.70;87.36
70488;BME280;57976;48.174;16.370;2022-08-25T01:25:26;99342.52;;;22.72;87.33
70488;BME280;57976;48.174;16.370;2022-08-25T01:27:34;99345.08;;;22.74;87.33
70488;BME280;57976;48.174;16.370;2022-08-25T01:29:39;99342.63;;;22.75;87.45
70488;BME280;57976;48.174;16.370;2022-08-25T01:31:44;99340.45;;;22.76;87.62
70488;BME280;57976;48.174;16.370;2022-08-25T01:33:49;99335.19;;;22.74;87.43
70488;BME280;57976;48.174;16.370;2022-08-25T01:35:54;99337.79;;;22.74;87.37
70488;BME280;57976;48.174;16.370;2022-08-25T01:37:59;99339.31;;;22.75;87.38
70488;BME280;57976;48.174;16.370;2022-08-25T01:40:06;99339.26;;;22.76;87.45
70488;BME280;57976;48.174;16.370;2022-08-25T01:42:28;99339.37;;;22.77;87.44
70488;BME280;57976;48.174;16.370;2022-08-25T01:44:39;99332.88;;;22.78;87.45
70488;BME280;57976;48.174;16.370;2022-08-25T01:46:44;99330.33;;;22.79;87.34
70488;BME280;57976;48.174;16.370;2022-08-25T01:48:49;99329.29;;;22.79;87.48
70488;BME280;57976;48.174;16.370;2022-08-25T01:50:53;99326.15;;;22.79;87.49
70488;BME280;57976;48.174;16.370;2022-08-25T01:53:02;99325.08;;;22.79;87.37
70488;BME280;57976;48.174;16.370;2022-08-25T01:55:08;99323.53;;;22.80;87.40
70488;BME280;57976;48.174;16.370;2022-08-25T01:57:13;99326.73;;;22.80;87.35
70488;BME280;57976;48.174;16.370;2022-08-25T01:59:19;99327.06;;;22.79;87.54
70488;BME280;57976;48.174;16.370;2022-08-25T02:01:28;99331.27;;;22.78;87.49
70488;BME280;57976;48.174;16.370;2022-08-25T02:03:34;99334.86;;;22.77;87.82
70488;BME280;57976;48.174;16.370;2022-08-25T02:05:40;99335.89;;;22.76;88.01
70488;BME280;57976;48.174;16.370;2022-08-25T02:07:45;99336.26;;;22.77;87.82
70488;BME280;57976;48.174;16.370;2022-08-25T02:09:50;99337.41;;;22.77;87.80
70488;BME280;57976;48.174;16.370;2022-08-25T02:11:55;99334.86;;;22.74;87.88
70488;BME280;57976;48.174;16.370;2022-08-25T02:13:59;99332.25;;;22.75;88.00
70488;BME280;57976;48.174;16.370;2022-08-25T02:16:05;99333.77;;;22.77;87.76
70488;BME280;57976;48.174;16.370;2022-08-25T02:18:10;99333.88;;;22.77;87.76
70488;BME280;57976;48.174;16.370;2022-08-25T02:20:15;99332.52;;;22.77;87.83
70488;BME280;57976;48.174;16.370;2022-08-25T02:22:20;99334.59;;;22.76;87.85
70488;BME280;57976;48.174;16.370;2022-08-25T02:24:25;99328.88;;;22.75;88.16
70488;BME280;57976;48.174;16.370;2022-08-25T02:26:30;99330.41;;;22.75;88.08
70488;BME280;57976;48.174;16.370;2022-08-25T02:28:35;99333.22;;;22.78;88.07
70488;BME280;57976;48.174;16.370;2022-08-25T02:30:41;99331.96;;;22.80;88.10
70488;BME280;57976;48.174;16.370;2022-08-25T02:32:46;99333.10;;;22.80;88.05
70488;BME280;57976;48.174;16.370;2022-08-25T02:34:51;99333.14;;;22.82;88.05
70488;BME280;57976;48.174;16.370;2022-08-25T02:36:56;99330.54;;;22.81;87.95
70488;BME280;57976;48.174;16.370;2022-08-25T02:39:01;99327.66;;;22.82;87.95
70488;BME280;57976;48.174;16.370;2022-08-25T02:41:12;99328.62;;;22.84;87.92
70488;BME280;57976;48.174;16.370;2022-08-25T02:43:17;99330.61;;;22.85;87.97
70488;BME280;57976;48.174;16.370;2022-08-25T02:45:22;99328.45;;;22.84;87.88
70488;BME280;57976;48.174;16.370;2022-08-25T02:47:27;99326.71;;;22.85;87.95
70488;BME280;57976;48.174;16.370;2022-08-25T02:49:32;99322.08;;;22.86;88.01
70488;BME280;57976;48.174;16.370;2022-08-25T02:51:37;99323.06;;;22.88;87.79
70488;BME280;57976;48.174;16.370;2022-08-25T02:53:42;99316.27;;;22.88;87.95
70488;BME280;57976;48.174;16.370;2022-08-25T02:55:47;99318.70;;;22.90;87.91
70488;BME280;57976;48.174;16.370;2022-08-25T02:57:52;99319.27;;;22.91;87.98
70488;BME280;57976;48.174;16.370;2022-08-25T02:59:57;99320.56;;;22.94;87.94
70488;BME280;57976;48.174;16.370;2022-08-25T03:02:02;99321.81;;;22.95;87.75
70488;BME280;57976;48.174;16.370;2022-08-25T03:04:06;99316.46;;;22.92;87.79
70488;BME280;57976;48.174;16.370;2022-08-25T03:06:12;99318.52;;;22.91;87.87
70488;BME280;57976;48.174;16.370;2022-08-25T03:08:18;99312.77;;;22.90;87.87
70488;BME280;57976;48.174;16.370;2022-08-25T03:10:22;99316.16;;;22.87;88.09
70488;BME280;57976;48.174;16.370;2022-08-25T03:12:27;99316.03;;;22.82;88.11
70488;BME280;57976;48.174;16.370;2022-08-25T03:14:32;99318.04;;;22.80;88.18
70488;BME280;57976;48.174;16.370;2022-08-25T03:16:37;99319.13;;;22.81;88.15
70488;BME280;57976;48.174;16.370;2022-08-25T03:18:42;99317.92;;;22.82;88.38
70488;BME280;57976;48.174;16.370;2022-08-25T03:20:47;99319.87;;;22.82;88.39
70488;BME280;57976;48.174;16.370;2022-08-25T03:22:52;99317.11;;;22.82;88.48
70488;BME280;57976;48.174;16.370;2022-08-25T03:24:57;99317.02;;;22.80;88.59
70488;BME280;57976;48.174;16.370;2022-08-25T03:27:02;99316.27;;;22.79;88.68
70488;BME280;57976;48.174;16.370;2022-08-25T03:29:07;99314.91;;;22.79;88.68
70488;BME280;57976;48.174;16.370;2022-08-25T03:31:12;99315.08;;;22.78;88.73
70488;BME280;57976;48.174;16.370;2022-08-25T03:33:17;99314.48;;;22.76;88.86
70488;BME280;57976;48.174;16.370;2022-08-25T03:35:22;99314.55;;;22.73;89.19
70488;BME280;57976;48.174;16.370;2022-08-25T03:37:27;99315.05;;;22.72;89.54
70488;BME280;57976;48.174;16.370;2022-08-25T03:39:32;99317.25;;;22.67;89.52
70488;BME280;57976;48.174;16.370;2022-08-25T03:41:40;99310.63;;;22.65;89.59
70488;BME280;57976;48.174;16.370;2022-08-25T03:43:45;99315.09;;;22.64;89.87
70488;BME280;57976;48.174;16.370;2022-08-25T03:45:55;99311.66;;;22.64;90.03
70488;BME280;57976;48.174;16.370;2022-08-25T03:48:00;99312.05;;;22.64;89.81
70488;BME280;57976;48.174;16.370;2022-08-25T03:50:07;99313.46;;;22.65;89.98
70488;BME280;57976;48.174;16.370;2022-08-25T03:52:12;99311.88;;;22.63;90.02
70488;BME280;57976;48.174;16.370;2022-08-25T03:54:19;99311.08;;;22.63;90.06
70488;BME280;57976;48.174;16.370;2022-08-25T03:56:25;99314.00;;;22.62;90.25
70488;BME280;57976;48.174;16.370;2022-08-25T03:58:29;99309.77;;;22.62;90.29
70488;BME280;57976;48.174;16.370;2022-08-25T04:00:34;99308.29;;;22.63;90.20
70488;BME280;57976;48.174;16.370;2022-08-25T04:02:39;99304.39;;;22.65;90.23
70488;BME280;57976;48.174;16.370;2022-08-25T04:04:45;99307.09;;;22.66;90.21
70488;BME280;57976;48.174;16.370;2022-08-25T04:06:50;99308.40;;;22.65;90.06
70488;BME280;57976;48.174;16.370;2022-08-25T04:08:55;99309.37;;;22.66;90.16
70488;BME280;57976;48.174;16.370;2022-08-25T04:11:00;99311.60;;;22.66;90.15
70488;BME280;57976;48.174;16.370;2022-08-25T04:13:08;99312.52;;;22.65;90.32
70488;BME280;57976;48.174;16.370;2022-08-25T04:15:13;99310.25;;;22.64;90.55
70488;BME280;57976;48.174;16.370;2022-08-25T04:17:18;99310.16;;;22.62;90.37
70488;BME280;57976;48.174;16.370;2022-08-25T04:19:23;99307.00;;;22.57;90.62
70488;BME280;57976;48.174;16.370;2022-08-25T04:21:28;99306.83;;;22.57;90.85
70488;BME280;57976;48.174;16.370;2022-08-25T04:23:37;99307.70;;;22.57;91.04
70488;BME280;57976;48.174;16.370;2022-08-25T04:25:42;99306.45;;;22.56;91.09
70488;BME280;57976;48.174;16.370;2022-08-25T04:27:49;99311.24;;;22.52;91.23
70488;BME280;57976;48.174;16.370;2022-08-25T04:29:54;99312.20;;;22.48;91.39
70488;BME280;57976;48.174;16.370;2022-08-25T04:31:59;99312.44;;;22.47;91.51
70488;BME280;57976;48.174;16.370;2022-08-25T04:34:04;99310.52;;;22.46;91.66
70488;BME280;57976;48.174;16.370;2022-08-25T04:36:30;99305.71;;;22.43;91.68
70488;BME280;57976;48.174;16.370;2022-08-25T04:38:35;99307.11;;;22.45;91.86
70488;BME280;57976;48.174;16.370;2022-08-25T04:40:39;99307.81;;;22.47;91.83
70488;BME280;57976;48.174;16.370;2022-08-25T04:42:44;99310.29;;;22.47;91.68
70488;BME280;57976;48.174;16.370;2022-08-25T04:44:51;99312.69;;;22.47;91.87
70488;BME280;57976;48.174;16.370;2022-08-25T04:46:56;99313.23;;;22.47;91.87
70488;BME280;57976;48.174;16.370;2022-08-25T04:49:02;99312.21;;;22.46;91.98
70488;BME280;57976;48.174;16.370;2022-08-25T04:51:10;99310.59;;;22.43;92.10
70488;BME280;57976;48.174;16.370;2022-08-25T04:53:16;99315.15;;;22.39;92.26
70488;BME280;57976;48.174;16.370;2022-08-25T04:55:22;99313.21;;;22.39;92.43
70488;BME280;57976;48.174;16.370;2022-08-25T04:57:27;99312.88;;;22.40;92.40
70488;BME280;57976;48.174;16.370;2022-08-25T04:59:31;99310.61;;;22.40;92.47
70488;BME280;57976;48.174;16.370;2022-08-25T05:01:37;99312.00;;;22.43;92.42
70488;BME280;57976;48.174;16.370;2022-08-25T05:03:42;99307.32;;;22.46;92.36
70488;BME280;57976;48.174;16.370;2022-08-25T05:05:47;99308.56;;;22.48;92.16
70488;BME280;57976;48.174;16.370;2022-08-25T05:07:52;99307.15;;;22.49;92.02
70488;BME280;57976;48.174;16.370;2022-08-25T05:09:57;99303.29;;;22.48;92.06
70488;BME280;57976;48.174;16.370;2022-08-25T05:12:03;99301.70;;;22.51;92.07
70488;BME280;57976;48.174;16.370;2022-08-25T05:14:08;99299.08;;;22.53;92.13
70488;BME280;57976;48.174;16.370;2022-08-25T05:16:12;99302.94;;;22.52;92.46
70488;BME280;57976;48.174;16.370;2022-08-25T05:18:19;99306.98;;;22.49;93.27
70488;BME280;57976;48.174;16.370;2022-08-25T05:20:25;99309.60;;;22.47;93.17
70488;BME280;57976;48.174;16.370;2022-08-25T05:22:30;99305.48;;;22.44;93.39
70488;BME280;57976;48.174;16.370;2022-08-25T05:24:34;99308.27;;;22.40;93.55
70488;BME280;57976;48.174;16.370;2022-08-25T05:26:39;99302.16;;;22.36;93.92
70488;BME280;57976;48.174;16.370;2022-08-25T05:28:44;99305.11;;;22.30;93.88
70488;BME280;57976;48.174;16.370;2022-08-25T05:30:49;99306.81;;;22.25;93.96
70488;BME280;57976;48.174;16.370;2022-08-25T05:32:54;99308.30;;;22.20;94.33
70488;BME280;57976;48.174;16.370;2022-08-25T05:34:58;99308.09;;;22.18;94.35
70488;BME280;57976;48.174;16.370;2022-08-25T05:37:03;99310.69;;;22.16;94.71
70488;BME280;57976;48.174;16.370;2022-08-25T05:39:12;99310.27;;;22.15;94.85
70488;BME280;57976;48.174;16.370;2022-08-25T05:41:20;99311.13;;;22.16;94.85
70488;BME280;57976;48.174;16.370;2022-08-25T05:43:25;99314.39;;;22.18;94.72
70488;BME280;57976;48.174;16.370;2022-08-25T05:45:30;99315.41;;;22.20;94.72
70488;BME280;57976;48.174;16.370;2022-08-25T05:47:34;99316.61;;;22.18;94.65
70488;BME280;57976;48.174;16.370;2022-08-25T05:49:40;99321.70;;;22.17;94.59
70488;BME280;57976;48.174;16.370;2022-08-25T05:51:45;99321.98;;;22.16;94.80
70488;BME280;57976;48.174;16.370;2022-08-25T05:53:50;99319.70;;;22.15;94.85
70488;BME280;57976;48.174;16.370;2022-08-25T05:55:57;99318.08;;;22.13;94.89
70488;BME280;57976;48.174;16.370;2022-08-25T05:58:02;99317.83;;;22.11;94.90
70488;BME280;57976;48.174;16.370;2022-08-25T06:00:09;99320.36;;;22.12;94.97
70488;BME280;57976;48.174;16.370;2022-08-25T06:02:17;99322.38;;;22.15;95.14
70488;BME280;57976;48.174;16.370;2022-08-25T06:04:22;99322.64;;;22.19;94.93
70488;BME280;57976;48.174;16.370;2022-08-25T06:06:27;99322.41;;;22.20;94.69
70488;BME280;57976;48.174;16.370;2022-08-25T06:08:32;99324.14;;;22.21;94.67
70488;BME280;57976;48.174;16.370;2022-08-25T06:10:37;99324.67;;;22.23;94.73
70488;BME280;57976;48.174;16.370;2022-08-25T06:12:46;99328.89;;;22.28;94.65
70488;BME280;57976;48.174;16.370;2022-08-25T06:14:52;99324.98;;;22.29;94.76
70488;BME280;57976;48.174;16.370;2022-08-25T06:16:57;99319.98;;;22.31;94.44
70488;BME280;57976;48.174;16.370;2022-08-25T06:19:02;99318.12;;;22.36;94.27
70488;BME280;57976;48.174;16.370;2022-08-25T06:21:11;99317.23;;;22.38;94.15
70488;BME280;57976;48.174;16.370;2022-08-25T06:23:16;99319.27;;;22.44;93.99
70488;BME280;57976;48.174;16.370;2022-08-25T06:25:24;99318.08;;;22.46;93.81
70488;BME280;57976;48.174;16.370;2022-08-25T06:27:29;99321.04;;;22.51;93.73
70488;BME280;57976;48.174;16.370;2022-08-25T06:29:33;99321.08;;;22.57;93.70
70488;BME280;57976;48.174;16.370;2022-08-25T06:31:41;99323.56;;;22.63;93.42
70488;BME280;57976;48.174;16.370;2022-08-25T06:33:47;99325.08;;;22.64;93.26
70488;BME280;57976;48.174;16.370;2022-08-25T06:35:54;99326.48;;;22.65;93.19
70488;BME280;57976;48.174;16.370;2022-08-25T06:38:02;99323.48;;;22.69;93.03
70488;BME280;57976;48.174;16.370;2022-08-25T06:40:08;99325.38;;;22.71;92.93
70488;BME280;57976;48.174;16.370;2022-08-25T06:42:13;99324.82;;;22.73;92.87
70488;BME280;57976;48.174;16.370;2022-08-25T06:44:18;99325.73;;;22.76;92.66
70488;BME280;57976;48.174;16.370;2022-08-25T06:46:26;99327.35;;;22.78;92.58
70488;BME280;57976;48.174;16.370;2022-08-25T06:48:40;99326.17;;;22.83;92.32
70488;BME280;57976;48.174;16.370;2022-08-25T06:50:46;99328.06;;;22.87;92.09
70488;BME280;57976;48.174;16.370;2022-08-25T06:52:51;99324.39;;;22.92;91.96
70488;BME280;57976;48.174;16.370;2022-08-25T06:54:55;99326.76;;;22.95;91.75
70488;BME280;57976;48.174;16.370;2022-08-25T06:57:00;99325.13;;;22.96;91.50
70488;BME280;57976;48.174;16.370;2022-08-25T06:59:06;99328.91;;;22.97;91.39
70488;BME280;57976;48.174;16.370;2022-08-25T07:01:15;99329.73;;;22.99;91.30
70488;BME280;57976;48.174;16.370;2022-08-25T07:03:23;99331.02;;;22.99;90.97
70488;BME280;57976;48.174;16.370;2022-08-25T07:05:29;99332.23;;;22.96;91.05
70488;BME280;57976;48.174;16.370;2022-08-25T07:07:47;99331.11;;;22.96;91.13
70488;BME280;57976;48.174;16.370;2022-08-25T07:09:52;99332.77;;;23.00;90.96
70488;BME280;57976;48.174;16.370;2022-08-25T07:11:57;99332.92;;;23.01;90.90
70488;BME280;57976;48.174;16.370;2022-08-25T07:14:03;99332.81;;;23.02;90.90
70488;BME280;57976;48.174;16.370;2022-08-25T07:16:09;99335.81;;;23.06;90.82
70488;BME280;57976;48.174;16.370;2022-08-25T07:18:13;99334.44;;;23.10;90.71
70488;BME280;57976;48.174;16.370;2022-08-25T07:20:18;99337.40;;;23.13;90.60
70488;BME280;57976;48.174;16.370;2022-08-25T07:22:24;99341.84;;;23.17;90.49
70488;BME280;57976;48.174;16.370;2022-08-25T07:24:31;99342.01;;;23.22;90.45
70488;BME280;57976;48.174;16.370;2022-08-25T07:26:37;99346.69;;;23.31;90.32
70488;BME280;57976;48.174;16.370;2022-08-25T07:28:42;99341.70;;;23.38;90.07
70488;BME280;57976;48.174;16.370;2022-08-25T07:30:51;99344.75;;;23.46;89.67
70488;BME280;57976;48.174;16.370;2022-08-25T07:32:56;99343.06;;;23.52;89.32
70488;BME280;57976;48.174;16.370;2022-08-25T07:35:00;99342.21;;;23.57;88.84
70488;BME280;57976;48.174;16.370;2022-08-25T07:37:06;99342.38;;;23.62;88.54
70488;BME280;57976;48.174;16.370;2022-08-25T07:39:21;99340.26;;;23.69;88.50
70488;BME280;57976;48.174;16.370;2022-08-25T07:41:26;99340.85;;;23.76;88.26
70488;BME280;57976;48.174;16.370;2022-08-25T07:43:31;99344.73;;;23.79;88.01
70488;BME280;57976;48.174;16.370;2022-08-25T07:45:37;99349.16;;;23.78;87.84
70488;BME280;57976;48.174;16.370;2022-08-25T07:47:52;99346.77;;;23.77;87.87
70488;BME280;57976;48.174;16.370;2022-08-25T07:49:57;99352.13;;;23.75;87.67
70488;BME280;57976;48.174;16.370;2022-08-25T07:52:02;99352.25;;;23.72;87.69
70488;BME280;57976;48.174;16.370;2022-08-25T07:54:10;99355.85;;;23.71;87.78
70488;BME280;57976;48.174;16.370;2022-08-25T07:56:18;99355.20;;;23.71;87.73
70488;BME280;57976;48.174;16.370;2022-08-25T07:58:23;99356.16;;;23.74;87.81
70488;BME280;57976;48.174;16.370;2022-08-25T08:00:28;99354.48;;;23.79;87.42
70488;BME280;57976;48.174;16.370;2022-08-25T08:02:33;99355.05;;;23.83;87.26
70488;BME280;57976;48.174;16.370;2022-08-25T08:04:38;99355.61;;;23.86;86.92
70488;BME280;57976;48.174;16.370;2022-08-25T08:06:44;99358.77;;;23.93;86.94
70488;BME280;57976;48.174;16.370;2022-08-25T08:08:53;99358.55;;;24.04;86.78
70488;BME280;57976;48.174;16.370;2022-08-25T08:11:02;99351.67;;;24.17;86.13
70488;BME280;57976;48.174;16.370;2022-08-25T08:13:09;99352.50;;;24.26;85.76
70488;BME280;57976;48.174;16.370;2022-08-25T08:15:15;99352.42;;;24.33;85.63
70488;BME280;57976;48.174;16.370;2022-08-25T08:17:20;99354.40;;;24.41;85.31
70488;BME280;57976;48.174;16.370;2022-08-25T08:19:25;99356.33;;;24.48;84.82
70488;BME280;57976;48.174;16.370;2022-08-25T08:21:32;99356.38;;;24.57;84.82
70488;BME280;57976;48.174;16.370;2022-08-25T08:23:37;99355.06;;;24.67;84.02
70488;BME280;57976;48.174;16.370;2022-08-25T08:25:42;99357.41;;;24.77;83.67
70488;BME280;57976;48.174;16.370;2022-08-25T08:27:50;99356.33;;;24.85;83.00
70488;BME280;57976;48.174;16.370;2022-08-25T08:29:58;99356.83;;;24.93;82.83
70488;BME280;57976;48.174;16.370;2022-08-25T08:32:08;99355.10;;;24.99;82.49
70488;BME280;57976;48.174;16.370;2022-08-25T08:34:14;99355.66;;;25.05;82.32
70488;BME280;57976;48.174;16.370;2022-08-25T08:36:19;99353.79;;;25.07;81.89
70488;BME280;57976;48.174;16.370;2022-08-25T08:38:29;99352.05;;;25.06;81.64
70488;BME280;57976;48.174;16.370;2022-08-25T08:40:40;99352.58;;;25.07;81.34
70488;BME280;57976;48.174;16.370;2022-08-25T08:42:58;99351.67;;;25.05;80.80
70488;BME280;57976;48.174;16.370;2022-08-25T08:45:15;99350.34;;;25.12;80.77
70488;BME280;57976;48.174;16.370;2022-08-25T08:47:31;99349.02;;;25.27;80.77
70488;BME280;57976;48.174;16.370;2022-08-25T08:49:43;99351.57;;;25.38;80.02
70488;BME280;57976;48.174;16.370;2022-08-25T08:52:00;99354.36;;;25.43;79.68
70488;BME280;57976;48.174;16.370;2022-08-25T08:54:09;99351.49;;;25.45;79.36
70488;BME280;57976;48.174;16.370;2022-08-25T08:56:20;99352.48;;;25.50;79.41
70488;BME280;57976;48.174;16.370;2022-08-25T08:58:33;99353.87;;;25.56;79.04
70488;BME280;57976;48.174;16.370;2022-08-25T09:00:48;99350.35;;;25.65;78.95
70488;BME280;57976;48.174;16.370;2022-08-25T09:02:59;99353.50;;;25.75;78.60
70488;BME280;57976;48.174;16.370;2022-08-25T09:05:11;99351.92;;;25.81;78.07
70488;BME280;57976;48.174;16.370;2022-08-25T09:07:18;99346.73;;;25.91;77.38
70488;BME280;57976;48.174;16.370;2022-08-25T09:09:27;99343.56;;;25.94;76.72
70488;BME280;57976;48.174;16.370;2022-08-25T09:11:44;99347.34;;;26.00;76.29
70488;BME280;57976;48.174;16.370;2022-08-25T09:14:04;99345.21;;;26.05;75.85
70488;BME280;57976;48.174;16.370;2022-08-25T09:16:19;99340.20;;;26.17;75.98
70488;BME280;57976;48.174;16.370;2022-08-25T09:18:45;99338.75;;;26.24;75.75
70488;BME280;57976;48.174;16.370;2022-08-25T09:21:05;99336.16;;;26.28;75.58
70488;BME280;57976;48.174;16.370;2022-08-25T09:23:22;99334.16;;;26.27;75.04
70488;BME280;57976;48.174;16.370;2022-08-25T09:25:34;99334.96;;;26.22;74.99
70488;BME280;57976;48.174;16.370;2022-08-25T09:28:05;99337.46;;;26.21;75.58
70488;BME280;57976;48.174;16.370;2022-08-25T09:30:13;99331.57;;;26.20;75.24
70488;BME280;57976;48.174;16.370;2022-08-25T09:32:19;99335.61;;;26.20;75.43
70488;BME280;57976;48.174;16.370;2022-08-25T09:34:33;99328.68;;;26.17;75.40
70488;BME280;57976;48.174;16.370;2022-08-25T09:36:38;99323.27;;;26.17;75.53
70488;BME280;57976;48.174;16.370;2022-08-25T09:38:43;99315.86;;;26.19;75.37
70488;BME280;57976;48.174;16.370;2022-08-25T09:40:50;99316.67;;;26.25;75.13
70488;BME280;57976;48.174;16.370;2022-08-25T09:42:57;99311.09;;;26.28;74.90
70488;BME280;57976;48.174;16.370;2022-08-25T09:45:04;99314.97;;;26.30;74.67
70488;BME280;57976;48.174;16.370;2022-08-25T09:47:20;99310.70;;;26.31;74.52
70488;BME280;57976;48.174;16.370;2022-08-25T09:49:33;99304.40;;;26.35;74.30
70488;BME280;57976;48.174;16.370;2022-08-25T09:51:38;99304.88;;;26.42;74.15
70488;BME280;57976;48.174;16.370;2022-08-25T09:53:52;99300.98;;;26.49;73.82
70488;BME280;57976;48.174;16.370;2022-08-25T09:56:02;99299.89;;;26.52;73.46
70488;BME280;57976;48.174;16.370;2022-08-25T09:58:19;99295.42;;;26.56;73.19
70488;BME280;57976;48.174;16.370;2022-08-25T10:00:28;99292.27;;;26.62;72.88
70488;BME280;57976;48.174;16.370;2022-08-25T10:02:34;99295.66;;;26.70;72.54
70488;BME280;57976;48.174;16.370;2022-08-25T10:04:41;99290.65;;;26.70;71.55
70488;BME280;57976;48.174;16.370;2022-08-25T10:06:47;99289.50;;;26.66;71.70
70488;BME280;57976;48.174;16.370;2022-08-25T10:08:57;99290.98;;;26.69;71.55
70488;BME280;57976;48.174;16.370;2022-08-25T10:11:05;99290.30;;;26.68;70.59
70488;BME280;57976;48.174;16.370;2022-08-25T10:13:16;99289.79;;;26.68;71.06
70488;BME280;57976;48.174;16.370;2022-08-25T10:15:29;99291.85;;;26.72;70.85
70488;BME280;57976;48.174;16.370;2022-08-25T10:17:35;99290.07;;;26.81;71.20
70488;BME280;57976;48.174;16.370;2022-08-25T10:19:41;99288.35;;;26.97;70.70
70488;BME280;57976;48.174;16.370;2022-08-25T10:22:03;99280.69;;;27.12;70.03
70488;BME280;57976;48.174;16.370;2022-08-25T10:24:09;99277.02;;;27.21;69.52
70488;BME280;57976;48.174;16.370;2022-08-25T10:26:22;99272.80;;;27.30;69.25
70488;BME280;57976;48.174;16.370;2022-08-25T10:28:49;99269.71;;;27.40;68.10
70488;BME280;57976;48.174;16.370;2022-08-25T10:31:04;99268.27;;;27.51;68.71
70488;BME280;57976;48.174;16.370;2022-08-25T10:33:22;99263.07;;;27.60;67.51
70488;BME280;57976;48.174;16.370;2022-08-25T10:35:34;99258.36;;;27.67;67.47
70488;BME280;57976;48.174;16.370;2022-08-25T10:37:50;99257.35;;;27.73;66.79
70488;BME280;57976;48.174;16.370;2022-08-25T10:40:09;99255.77;;;27.75;66.59
70488;BME280;57976;48.174;16.370;2022-08-25T10:42:31;99256.38;;;27.81;65.94
70488;BME280;57976;48.174;16.370;2022-08-25T10:44:45;99254.30;;;27.83;66.13
70488;BME280;57976;48.174;16.370;2022-08-25T10:47:03;99254.76;;;27.84;65.94
70488;BME280;57976;48.174;16.370;2022-08-25T10:49:17;99248.54;;;27.91;66.11
70488;BME280;57976;48.174;16.370;2022-08-25T10:51:35;99243.95;;;28.01;65.55
70488;BME280;57976;48.174;16.370;2022-08-25T10:53:49;99246.94;;;28.15;65.24
70488;BME280;57976;48.174;16.370;2022-08-25T10:56:09;99248.27;;;28.22;64.49
70488;BME280;57976;48.174;16.370;2022-08-25T10:58:22;99243.35;;;28.20;63.23
70488;BME280;57976;48.174;16.370;2022-08-25T11:00:38;99245.85;;;28.07;63.25
70488;BME280;57976;48.174;16.370;2022-08-25T11:03:03;99240.82;;;27.95;63.77
70488;BME280;57976;48.174;16.370;2022-08-25T11:05:24;99242.56;;;27.91;63.61
70488;BME280;57976;48.174;16.370;2022-08-25T11:07:34;99240.75;;;27.95;64.31